Maldives Meteorological Service

SYNOP

Station Code SYNOP
43555
AAXX 17184 43555 11457 82723 10251 20235 30108 40110 60041 78022 859// 333 59004 81710 83816 83917=
43533
AAXX 17184 43533 11459 82919 10264 20236 30107 40109 60141 76186 8392/ 333 59003 82817 81918 88460 =
43577
AAXX 17184 43577 11462 71807 10282 20249 30108 40110 69901 70282 82238 333 59010 82818 87277=
43588
AAXX 17184 43588 11462 61808 10280 20252 30109 40110 69971 71382 83938 333 59009 82817 81918 86276=
43599
AAXX 17184 43599 11458 71812 10280 20246 30110 40112 69931 78082 84962 333 59013 83817 81918 87076=
Last Updated : 2018-08-17 23:01:16